createdAt,value
2019-03-25T00:05:20.745Z,99512.83
2019-03-25T00:08:11.123Z,99529.05
2019-03-25T00:11:01.465Z,99504.23
2019-03-25T00:13:51.800Z,99499.50
2019-03-25T00:16:42.095Z,99512.94
2019-03-25T00:19:32.442Z,99499.81
2019-03-25T00:22:22.754Z,99492.66
2019-03-25T00:25:13.129Z,99503.44
2019-03-25T00:28:03.451Z,99491.00
2019-03-25T00:30:34.400Z,99477.25
2019-03-25T00:33:24.754Z,99475.33
2019-03-25T00:36:15.116Z,99477.84
2019-03-25T00:42:27.546Z,99487.38
2019-03-25T00:45:17.920Z,99483.44
2019-03-25T00:48:08.315Z,99483.06
2019-03-25T00:50:58.615Z,99489.08
2019-03-25T00:53:48.932Z,99465.92
2019-03-25T00:56:39.262Z,99452.87
2019-03-25T00:59:31.671Z,99464.27
2019-03-25T01:02:21.979Z,99458.73
2019-03-25T01:05:12.471Z,99449.77
2019-03-25T01:08:02.780Z,99453.67
2019-03-25T01:10:53.207Z,99461.94
2019-03-25T01:13:43.527Z,99457.35
2019-03-25T01:16:33.871Z,99470.90
2019-03-25T01:19:04.796Z,99460.50
2019-03-25T01:21:55.136Z,99469.19
2019-03-25T01:24:45.460Z,99455.80
2019-03-25T01:27:18.053Z,99467.28
2019-03-25T01:30:09.052Z,99463.59
2019-03-25T01:32:40.601Z,99464.66
2019-03-25T01:35:30.924Z,99463.80
2019-03-25T01:38:21.264Z,99459.48
2019-03-25T01:41:11.583Z,99462.19
2019-03-25T01:44:01.925Z,99468.64
2019-03-25T01:46:52.243Z,99464.43
2019-03-25T01:49:42.596Z,99465.71
2019-03-25T01:52:32.916Z,99461.12
2019-03-25T01:55:23.281Z,99458.94
2019-03-25T01:58:13.596Z,99450.45
2019-03-25T02:01:03.951Z,99450.27
2019-03-25T02:03:54.258Z,99459.13
2019-03-25T02:06:44.576Z,99457.28
2019-03-25T02:09:15.584Z,99453.16
2019-03-25T02:12:05.925Z,99446.89
2019-03-25T02:14:58.594Z,99441.50
2019-03-25T02:17:48.929Z,99439.36
2019-03-25T02:20:39.240Z,99438.62
2019-03-25T02:23:29.555Z,99442.03
2019-03-25T02:26:02.099Z,99435.63
2019-03-25T02:28:52.429Z,99430.84
2019-03-25T02:31:42.750Z,99415.53
2019-03-25T02:34:33.107Z,99416.49
2019-03-25T02:37:23.404Z,99411.05
2019-03-25T02:40:14.099Z,99408.58
2019-03-25T02:45:48.883Z,99403.67
2019-03-25T02:48:39.192Z,99403.67
2019-03-25T02:51:29.564Z,99396.84
2019-03-25T02:54:19.874Z,99391.00
2019-03-25T02:57:10.206Z,99391.61
2019-03-25T03:00:00.581Z,99394.98
2019-03-25T03:02:50.872Z,99398.94
2019-03-25T03:05:41.182Z,99394.67
2019-03-25T03:08:31.528Z,99389.61
2019-03-25T03:11:40.567Z,99375.92
2019-03-25T03:14:30.898Z,99381.73
2019-03-25T03:17:21.205Z,99380.65
2019-03-25T03:19:55.123Z,99378.95
2019-03-25T03:22:44.199Z,99372.68
2019-03-25T03:25:15.141Z,99371.13
2019-03-25T03:27:46.057Z,99367.86
2019-03-25T03:30:36.408Z,99368.72
2019-03-25T03:33:26.747Z,99369.89
2019-03-25T03:36:17.107Z,99371.70
2019-03-25T03:39:08.113Z,99379.28
2019-03-25T03:41:58.461Z,99374.10
2019-03-25T03:44:48.773Z,99377.52
2019-03-25T03:47:39.125Z,99377.41
2019-03-25T03:50:29.885Z,99372.67
2019-03-25T03:53:59.357Z,99365.91
2019-03-25T04:03:15.724Z,99355.98
2019-03-25T04:06:06.099Z,99352.58
2019-03-25T04:08:56.396Z,99350.56
2019-03-25T04:11:46.711Z,99350.56
2019-03-25T04:14:37.062Z,99357.25
2019-03-25T04:17:27.384Z,99357.47
2019-03-25T04:20:17.716Z,99365.74
2019-03-25T04:23:08.047Z,99379.47
2019-03-25T04:25:58.394Z,99365.85
2019-03-25T04:28:48.684Z,99372.67
2019-03-25T04:31:39.023Z,99379.48
2019-03-25T04:34:29.364Z,99372.73
2019-03-25T04:37:19.697Z,99376.23
2019-03-25T04:40:49.211Z,99376.94
2019-03-25T04:43:39.520Z,99374.19
2019-03-25T04:46:30.858Z,99371.84
2019-03-25T04:49:21.183Z,99375.42
2019-03-25T04:52:11.546Z,99378.31
2019-03-25T04:55:03.017Z,99384.33
2019-03-25T04:57:53.381Z,99383.68
2019-03-25T05:00:43.708Z,99388.29
2019-03-25T05:03:34.056Z,99382.70
2019-03-25T05:06:24.349Z,99387.63
2019-03-25T05:09:14.693Z,99388.06
2019-03-25T05:12:05.007Z,99390.05
2019-03-25T05:14:55.349Z,99380.34
2019-03-25T05:17:45.667Z,99381.48
2019-03-25T05:20:16.652Z,99379.73
2019-03-25T05:23:06.968Z,99373.67
2019-03-25T05:25:57.313Z,99373.39
2019-03-25T05:28:47.617Z,99373.05
2019-03-25T05:31:37.982Z,99373.39
2019-03-25T05:34:28.294Z,99377.22
2019-03-25T05:37:18.663Z,99383.98
2019-03-25T05:40:09.119Z,99389.16
2019-03-25T05:42:59.522Z,99390.00
2019-03-25T05:45:49.839Z,99389.01
2019-03-25T05:48:40.188Z,99382.77
2019-03-25T05:51:30.894Z,99379.41
2019-03-25T05:54:21.224Z,99378.50
2019-03-25T05:57:11.588Z,99370.94
2019-03-25T06:00:04.320Z,99376.98
2019-03-25T06:02:54.670Z,99375.38
2019-03-25T06:05:45.036Z,99369.50
2019-03-25T06:08:16.008Z,99368.65
2019-03-25T06:11:06.342Z,99376.84
2019-03-25T06:13:56.673Z,99378.81
2019-03-25T06:16:47.011Z,99380.48
2019-03-25T06:19:37.398Z,99386.97
2019-03-25T06:22:27.710Z,99380.70
2019-03-25T06:25:18.097Z,99371.04
2019-03-25T06:28:08.392Z,99380.88
2019-03-25T06:30:58.784Z,99376.66
2019-03-25T06:33:49.077Z,99379.81
2019-03-25T06:36:39.461Z,99374.40
2019-03-25T06:39:29.787Z,99376.27
2019-03-25T06:42:20.193Z,99370.91
2019-03-25T06:48:31.923Z,99377.00
2019-03-25T06:51:22.279Z,99361.71
2019-03-25T06:53:53.302Z,99375.42
2019-03-25T06:56:43.659Z,99365.84
2019-03-25T06:59:34.029Z,99368.39
2019-03-25T07:02:24.359Z,99364.21
2019-03-25T07:04:55.324Z,99362.16
2019-03-25T07:07:45.624Z,99375.36
2019-03-25T07:10:55.718Z,99385.33
2019-03-25T07:13:46.068Z,99384.13
2019-03-25T07:16:17.051Z,99396.82
2019-03-25T07:19:07.315Z,99397.75
2019-03-25T07:21:57.642Z,99381.12
2019-03-25T07:24:47.973Z,99386.72
2019-03-25T07:27:38.331Z,99390.55
2019-03-25T07:30:28.649Z,99385.44
2019-03-25T07:33:19.022Z,99373.38
2019-03-25T07:36:09.329Z,99374.86
2019-03-25T07:39:00.293Z,99361.34
2019-03-25T07:41:51.731Z,99358.68
2019-03-25T07:44:42.067Z,99361.45
2019-03-25T07:47:32.429Z,99357.28
2019-03-25T07:50:22.770Z,99353.14
2019-03-25T07:53:14.101Z,99356.98
2019-03-25T07:56:04.487Z,99355.31
2019-03-25T07:58:54.875Z,99361.35
2019-03-25T08:01:45.171Z,99362.09
2019-03-25T08:04:16.165Z,99361.61
2019-03-25T08:07:06.501Z,99342.20
2019-03-25T08:09:56.869Z,99334.08
2019-03-25T08:12:47.214Z,99337.74
2019-03-25T08:15:37.611Z,99332.64
2019-03-25T08:18:27.972Z,99338.67
2019-03-25T08:21:18.428Z,99345.41
2019-03-25T08:24:08.789Z,99336.50
2019-03-25T08:26:59.153Z,99336.55
2019-03-25T08:29:49.510Z,99336.59
2019-03-25T08:32:39.872Z,99327.66
2019-03-25T08:35:10.800Z,99336.25
2019-03-25T08:38:01.151Z,99326.23
2019-03-25T08:40:51.456Z,99321.37
2019-03-25T08:43:41.807Z,99324.77
2019-03-25T08:46:32.141Z,99321.94
2019-03-25T08:49:03.177Z,99323.21
2019-03-25T08:51:53.513Z,99326.61
2019-03-25T08:54:26.082Z,99316.44
2019-03-25T08:57:16.395Z,99323.82
2019-03-25T09:00:46.089Z,99315.02
2019-03-25T09:03:16.999Z,99315.58
2019-03-25T09:06:07.332Z,99315.59
2019-03-25T09:08:57.650Z,99314.73
2019-03-25T09:11:48.037Z,99306.94
2019-03-25T09:14:38.346Z,99311.33
2019-03-25T09:17:28.738Z,99303.23
2019-03-25T09:20:19.057Z,99298.97
2019-03-25T09:23:29.131Z,99304.12
2019-03-25T09:26:19.458Z,99306.97
2019-03-25T09:29:09.818Z,99318.76
2019-03-25T09:32:00.133Z,99303.38
2019-03-25T09:34:50.472Z,99314.03
2019-03-25T09:37:41.184Z,99312.98
2019-03-25T09:40:31.584Z,99303.38
2019-03-25T09:43:21.909Z,99305.98
2019-03-25T09:46:12.275Z,99311.23
2019-03-25T09:49:02.598Z,99302.76
2019-03-25T09:51:53.093Z,99305.91
2019-03-25T09:54:43.369Z,99309.09
2019-03-25T09:57:33.735Z,99295.55
2019-03-25T10:00:45.087Z,99286.03
2019-03-25T10:03:35.479Z,99279.35
2019-03-25T10:06:25.768Z,99274.34
2019-03-25T10:09:16.142Z,99264.62
2019-03-25T10:11:47.144Z,99270.33
2019-03-25T10:14:37.608Z,99268.26
2019-03-25T10:17:27.944Z,99263.48
2019-03-25T10:20:18.392Z,99253.05
2019-03-25T10:23:08.722Z,99265.45
2019-03-25T10:25:59.195Z,99256.67
2019-03-25T10:28:49.534Z,99251.63
2019-03-25T10:31:40.026Z,99255.68
2019-03-25T10:34:30.363Z,99258.20
2019-03-25T10:37:20.832Z,99225.45
2019-03-25T10:40:11.698Z,99221.08
2019-03-25T10:43:02.061Z,99210.45
2019-03-25T10:45:52.414Z,99211.64
2019-03-25T10:48:23.444Z,99205.00
2019-03-25T10:51:13.776Z,99193.16
2019-03-25T10:54:04.285Z,99184.56
2019-03-25T10:56:54.613Z,99178.89
2019-03-25T10:59:45.039Z,99166.14
2019-03-25T11:02:35.350Z,99157.48
2019-03-25T11:05:25.844Z,99161.42
2019-03-25T11:08:16.189Z,99155.33
2019-03-25T11:11:06.560Z,99167.24
2019-03-25T11:13:56.930Z,99155.44
2019-03-25T11:16:47.273Z,99147.58
2019-03-25T11:19:37.627Z,99167.41
2019-03-25T11:22:30.068Z,99163.58
2019-03-25T11:25:50.953Z,99156.84
2019-03-25T11:28:41.308Z,99130.44
2019-03-25T11:31:31.645Z,99184.16
2019-03-25T11:34:21.985Z,99146.00
2019-03-25T11:37:12.350Z,99138.82
2019-03-25T11:40:02.903Z,99133.41
2019-03-25T11:42:53.240Z,99142.13
2019-03-25T11:48:46.537Z,99123.41
2019-03-25T11:51:36.907Z,99119.05
2019-03-25T11:54:09.483Z,99151.11
2019-03-25T11:56:59.816Z,99107.55
2019-03-25T11:59:50.119Z,99125.23
2019-03-25T12:02:40.518Z,99139.27
2019-03-25T12:05:30.934Z,99104.80
2019-03-25T12:08:21.365Z,99139.27
2019-03-25T12:11:11.774Z,99124.87
2019-03-25T12:14:02.150Z,99110.78
2019-03-25T12:16:52.460Z,99103.70
2019-03-25T12:22:39.074Z,99097.89
2019-03-25T12:25:29.547Z,99104.64
2019-03-25T12:28:20.841Z,99113.28
2019-03-25T12:31:03.261Z,99088.98
2019-03-25T12:33:53.570Z,99098.34
2019-03-25T12:36:44.093Z,99086.56
2019-03-25T12:39:34.391Z,99090.30
2019-03-25T12:42:24.709Z,99090.33
2019-03-25T12:45:15.013Z,99077.03
2019-03-25T12:48:05.341Z,99103.38
2019-03-25T12:50:55.692Z,99086.05
2019-03-25T12:53:45.998Z,99095.78
2019-03-25T12:56:16.939Z,99089.02
2019-03-25T12:59:07.226Z,99081.09
2019-03-25T13:01:57.561Z,99085.27
2019-03-25T13:04:47.862Z,99078.95
2019-03-25T13:07:38.202Z,99048.95
2019-03-25T13:10:28.493Z,99059.05
2019-03-25T13:13:18.811Z,99076.66
2019-03-25T13:16:09.156Z,99042.15
2019-03-25T13:18:59.494Z,99085.25
2019-03-25T13:21:50.758Z,99081.73
2019-03-25T13:24:41.183Z,99094.39
2019-03-25T13:27:31.451Z,99098.31
2019-03-25T13:30:21.834Z,99092.00
2019-03-25T13:33:12.149Z,99109.53
2019-03-25T13:36:02.512Z,99096.50
2019-03-25T13:38:52.770Z,99138.41
2019-03-25T13:41:43.104Z,99109.98
2019-03-25T13:44:33.462Z,99098.11
2019-03-25T13:47:23.837Z,99110.97
2019-03-25T13:50:14.248Z,99083.67
2019-03-25T13:53:04.752Z,99101.61
2019-03-25T13:55:55.029Z,99079.50
2019-03-25T13:58:45.348Z,99100.75
2019-03-25T14:01:35.643Z,99104.77
2019-03-25T14:04:26.375Z,99128.56
2019-03-25T14:07:16.810Z,99113.52
2019-03-25T14:10:07.677Z,99142.53
2019-03-25T14:12:58.007Z,99151.02
2019-03-25T14:15:48.341Z,99135.62
2019-03-25T14:18:38.651Z,99162.45
2019-03-25T14:21:28.993Z,99132.83
2019-03-25T14:24:19.352Z,99145.05
2019-03-25T14:27:09.665Z,99135.16
2019-03-25T14:30:00.004Z,99149.42
2019-03-25T14:32:50.335Z,99144.27
2019-03-25T14:35:40.641Z,99155.16
2019-03-25T14:38:30.956Z,99163.53
2019-03-25T14:41:21.297Z,99146.01
2019-03-25T14:44:11.791Z,99168.00
2019-03-25T14:47:02.075Z,99150.86
2019-03-25T14:49:52.473Z,99175.55
2019-03-25T14:52:42.791Z,99168.71
2019-03-25T14:55:33.262Z,99166.88
2019-03-25T14:58:23.577Z,99179.33
2019-03-25T15:00:54.579Z,99184.55
2019-03-25T15:03:44.919Z,99199.08
2019-03-25T15:06:35.259Z,99194.76
2019-03-25T15:09:25.589Z,99238.46
2019-03-25T15:12:15.952Z,99239.09
2019-03-25T15:15:06.806Z,99224.20
2019-03-25T15:17:38.442Z,99247.98
2019-03-25T15:20:28.724Z,99212.58
2019-03-25T15:23:19.048Z,99211.28
2019-03-25T15:26:09.343Z,99251.05
2019-03-25T15:28:59.753Z,99225.72
2019-03-25T15:35:00.724Z,99239.45
2019-03-25T15:37:51.049Z,99327.34
2019-03-25T15:40:41.431Z,99261.31
2019-03-25T15:43:31.747Z,99240.02
2019-03-25T15:46:22.176Z,99224.25
2019-03-25T15:49:12.519Z,99236.03
2019-03-25T15:52:02.874Z,99234.27
2019-03-25T15:54:53.187Z,99206.41
2019-03-25T15:57:43.579Z,99207.01
2019-03-25T16:00:33.892Z,99221.42
2019-03-25T16:03:24.234Z,99224.74
2019-03-25T16:06:14.550Z,99236.41
2019-03-25T16:12:08.994Z,99231.81
2019-03-25T16:14:59.294Z,99280.72
2019-03-25T16:17:49.726Z,99230.94
2019-03-25T16:20:20.719Z,99246.66
2019-03-25T16:23:11.083Z,99245.73
2019-03-25T16:26:01.401Z,99276.52
2019-03-25T16:28:51.741Z,99244.15
2019-03-25T16:31:22.773Z,99248.20
2019-03-25T16:33:53.711Z,99267.87
2019-03-25T16:36:44.053Z,99266.23
2019-03-25T16:39:34.401Z,99319.25
2019-03-25T16:42:24.705Z,99260.89
2019-03-25T16:45:15.183Z,99277.08
2019-03-25T16:48:05.509Z,99321.80
2019-03-25T16:50:55.859Z,99303.73
2019-03-25T16:53:46.149Z,99302.44
2019-03-25T16:56:17.185Z,99306.70
2019-03-25T16:59:07.541Z,99303.17
2019-03-25T17:01:57.875Z,99318.77
2019-03-25T17:04:48.210Z,99328.80
2019-03-25T17:07:38.527Z,99341.85
2019-03-25T17:10:09.508Z,99304.52
2019-03-25T17:12:59.838Z,99309.67
2019-03-25T17:15:50.153Z,99345.01
2019-03-25T17:18:40.470Z,99283.48
2019-03-25T17:21:30.782Z,99275.52
2019-03-25T17:24:21.126Z,99318.92
2019-03-25T17:26:52.045Z,99302.81
2019-03-25T17:29:42.414Z,99284.60
2019-03-25T17:32:32.767Z,99291.81
2019-03-25T17:35:23.091Z,99321.20
2019-03-25T17:38:13.435Z,99290.66
2019-03-25T17:41:03.877Z,99301.77
2019-03-25T17:43:54.215Z,99273.30
2019-03-25T17:46:44.547Z,99294.13
2019-03-25T17:49:34.850Z,99310.34
2019-03-25T17:52:25.234Z,99329.00
2019-03-25T17:55:15.593Z,99323.51
2019-03-25T17:58:08.066Z,99310.40
2019-03-25T18:03:56.528Z,99322.71
2019-03-25T18:06:46.903Z,99299.74
2019-03-25T18:09:19.489Z,99275.98
2019-03-25T18:11:52.040Z,99293.80
2019-03-25T18:14:42.379Z,99342.22
2019-03-25T18:17:32.754Z,99377.88
2019-03-25T18:20:23.055Z,99428.28
2019-03-25T18:23:13.453Z,99407.84
2019-03-25T18:26:03.775Z,99392.98
2019-03-25T18:28:54.118Z,99399.03
2019-03-25T18:31:44.456Z,99412.61
2019-03-25T18:34:34.806Z,99416.01
2019-03-25T18:37:25.176Z,99445.34
2019-03-25T18:40:15.514Z,99430.09
2019-03-25T18:43:05.864Z,99425.88
2019-03-25T18:45:56.215Z,99419.11
2019-03-25T18:48:46.525Z,99410.64
2019-03-25T18:51:17.881Z,99431.52
2019-03-25T18:54:08.522Z,99455.67
2019-03-25T18:56:39.617Z,99479.05
2019-03-25T18:59:10.682Z,99485.84
2019-03-25T19:02:01.034Z,99487.58
2019-03-25T19:04:51.367Z,99496.47
2019-03-25T19:08:20.824Z,99514.25
2019-03-25T19:11:11.148Z,99509.16
2019-03-25T19:14:01.489Z,99494.30
2019-03-25T19:16:32.387Z,99497.73
2019-03-25T19:19:22.723Z,99491.39
2019-03-25T19:21:53.698Z,99490.48
2019-03-25T19:24:44.039Z,99499.02
2019-03-25T19:27:34.360Z,99507.06
2019-03-25T19:30:24.759Z,99523.19
2019-03-25T19:33:15.028Z,99511.31
2019-03-25T19:36:05.427Z,99512.57
2019-03-25T19:38:56.734Z,99527.36
2019-03-25T19:42:06.018Z,99532.94
2019-03-25T19:44:56.403Z,99554.09
2019-03-25T19:47:46.705Z,99545.66
2019-03-25T19:53:52.737Z,99568.55
2019-03-25T19:56:23.705Z,99563.89
2019-03-25T19:59:14.079Z,99565.63
2019-03-25T20:02:04.390Z,99568.61
2019-03-25T20:04:54.788Z,99575.81
2019-03-25T20:07:45.102Z,99578.79
2019-03-25T20:10:56.026Z,99588.13
2019-03-25T20:13:46.360Z,99595.73
2019-03-25T20:16:17.360Z,99611.84
2019-03-25T20:19:07.652Z,99605.48
2019-03-25T20:21:58.056Z,99608.90
2019-03-25T20:24:48.414Z,99625.84
2019-03-25T20:27:38.777Z,99615.23
2019-03-25T20:30:29.092Z,99607.20
2019-03-25T20:33:00.054Z,99627.52
2019-03-25T20:35:50.336Z,99620.75
2019-03-25T20:38:40.706Z,99627.94
2019-03-25T20:41:31.116Z,99648.72
2019-03-25T20:44:21.455Z,99654.20
2019-03-25T20:47:11.801Z,99648.27
2019-03-25T20:50:02.176Z,99647.84
2019-03-25T20:52:52.576Z,99646.61
2019-03-25T20:55:42.927Z,99655.92
2019-03-25T20:58:33.242Z,99653.36
2019-03-25T21:01:23.609Z,99665.70
2019-03-25T21:04:13.966Z,99665.25
2019-03-25T21:06:44.941Z,99669.93
2019-03-25T21:09:35.285Z,99661.45
2019-03-25T21:12:25.654Z,99677.53
2019-03-25T21:18:41.274Z,99659.33
2019-03-25T21:21:31.671Z,99680.50
2019-03-25T21:24:22.078Z,99676.29
2019-03-25T21:27:12.649Z,99675.41
2019-03-25T21:30:03.094Z,99666.08
2019-03-25T21:32:58.484Z,99671.56
2019-03-25T21:35:38.458Z,99683.86
2019-03-25T21:38:47.532Z,99700.38
2019-03-25T21:41:37.871Z,99707.98
2019-03-25T21:44:28.243Z,99707.56
2019-03-25T21:47:18.599Z,99724.09
2019-03-25T21:50:09.163Z,99743.59
2019-03-25T21:52:59.563Z,99751.20
2019-03-25T21:55:49.981Z,99753.77
2019-03-25T21:58:40.640Z,99759.27
2019-03-25T22:01:31.007Z,99748.67
2019-03-25T22:04:21.253Z,99761.78
2019-03-25T22:07:11.570Z,99748.19
2019-03-25T22:10:01.895Z,99751.16
2019-03-25T22:12:52.268Z,99775.70
2019-03-25T22:15:42.568Z,99757.94
2019-03-25T22:18:32.919Z,99765.59
2019-03-25T22:21:23.206Z,99764.73
2019-03-25T22:24:13.565Z,99772.74
2019-03-25T22:27:03.908Z,99774.42
2019-03-25T22:29:54.250Z,99782.88
2019-03-25T22:32:44.544Z,99789.67
2019-03-25T22:35:34.861Z,99794.34
2019-03-25T22:38:25.153Z,99796.02
2019-03-25T22:41:15.493Z,99788.44
2019-03-25T22:44:05.837Z,99787.16
2019-03-25T22:46:56.215Z,99804.06
2019-03-25T22:49:46.482Z,99805.88
2019-03-25T22:52:36.837Z,99802.01
2019-03-25T22:55:27.213Z,99801.98
2019-03-25T22:58:17.547Z,99814.70
2019-03-25T23:01:07.885Z,99817.63
2019-03-25T23:03:58.167Z,99836.70
2019-03-25T23:06:48.482Z,99838.03
2019-03-25T23:09:38.794Z,99853.66
2019-03-25T23:12:09.708Z,99856.59
2019-03-25T23:15:00.040Z,99859.58
2019-03-25T23:17:50.331Z,99875.31
2019-03-25T23:20:40.639Z,99870.63
2019-03-25T23:23:31.003Z,99876.97
2019-03-25T23:26:21.307Z,99865.97
2019-03-25T23:29:11.637Z,99874.91
2019-03-25T23:32:01.897Z,99862.17
2019-03-25T23:34:52.265Z,99870.15
2019-03-25T23:37:42.564Z,99867.22
2019-03-25T23:40:32.882Z,99888.01
2019-03-25T23:43:23.159Z,99892.63
2019-03-25T23:46:13.489Z,99887.20
2019-03-25T23:49:03.775Z,99888.52
2019-03-25T23:51:54.099Z,99898.20
2019-03-25T23:54:44.390Z,99900.25
2019-03-25T23:57:34.731Z,99899.06
